sensor_id;sensor_type;location;lat;lon;timestamp;P1;durP1;ratioP1;P2;durP2;ratioP2
11951;SDS011;6036;41.840;23.486;2022-10-16T00:01:13;6.65;;;3.22;;
11951;SDS011;6036;41.840;23.486;2022-10-16T00:03:41;6.80;;;4.05;;
11951;SDS011;6036;41.840;23.486;2022-10-16T00:06:08;7.60;;;3.78;;
11951;SDS011;6036;41.840;23.486;2022-10-16T00:08:34;7.35;;;3.60;;
11951;SDS011;6036;41.840;23.486;2022-10-16T00:13:40;4.00;;;2.60;;
11951;SDS011;6036;41.840;23.486;2022-10-16T00:16:07;4.97;;;3.03;;
11951;SDS011;6036;41.840;23.486;2022-10-16T00:18:34;4.07;;;2.97;;
11951;SDS011;6036;41.840;23.486;2022-10-16T00:21:03;4.13;;;2.95;;
11951;SDS011;6036;41.840;23.486;2022-10-16T00:23:34;4.90;;;3.00;;
11951;SDS011;6036;41.840;23.486;2022-10-16T00:26:01;4.03;;;2.72;;
11951;SDS011;6036;41.840;23.486;2022-10-16T00:28:28;6.00;;;2.78;;
11951;SDS011;6036;41.840;23.486;2022-10-16T00:30:54;6.35;;;3.33;;
11951;SDS011;6036;41.840;23.486;2022-10-16T00:33:20;3.33;;;2.60;;
11951;SDS011;6036;41.840;23.486;2022-10-16T00:35:46;3.80;;;2.50;;
11951;SDS011;6036;41.840;23.486;2022-10-16T00:38:12;3.67;;;2.80;;
11951;SDS011;6036;41.840;23.486;2022-10-16T00:40:37;5.80;;;3.08;;
11951;SDS011;6036;41.840;23.486;2022-10-16T00:43:08;3.40;;;2.67;;
11951;SDS011;6036;41.840;23.486;2022-10-16T00:45:39;4.32;;;2.90;;
11951;SDS011;6036;41.840;23.486;2022-10-16T00:48:06;8.25;;;3.95;;
11951;SDS011;6036;41.840;23.486;2022-10-16T00:50:35;4.43;;;3.00;;
11951;SDS011;6036;41.840;23.486;2022-10-16T00:53:01;5.35;;;2.90;;
11951;SDS011;6036;41.840;23.486;2022-10-16T00:55:28;5.35;;;2.85;;
11951;SDS011;6036;41.840;23.486;2022-10-16T00:57:55;4.88;;;3.35;;
11951;SDS011;6036;41.840;23.486;2022-10-16T01:00:24;4.63;;;3.20;;
11951;SDS011;6036;41.840;23.486;2022-10-16T01:03:00;4.15;;;3.25;;
11951;SDS011;6036;41.840;23.486;2022-10-16T01:05:39;7.43;;;3.67;;
11951;SDS011;6036;41.840;23.486;2022-10-16T01:08:17;4.43;;;3.25;;
11951;SDS011;6036;41.840;23.486;2022-10-16T01:11:01;4.88;;;3.47;;
11951;SDS011;6036;41.840;23.486;2022-10-16T01:13:50;4.18;;;2.75;;
11951;SDS011;6036;41.840;23.486;2022-10-16T01:16:23;7.22;;;2.97;;
11951;SDS011;6036;41.840;23.486;2022-10-16T01:19:12;4.13;;;3.03;;
11951;SDS011;6036;41.840;23.486;2022-10-16T01:21:43;5.03;;;2.83;;
11951;SDS011;6036;41.840;23.486;2022-10-16T01:24:31;5.90;;;2.80;;
11951;SDS011;6036;41.840;23.486;2022-10-16T01:27:06;4.70;;;3.03;;
11951;SDS011;6036;41.840;23.486;2022-10-16T01:29:36;4.05;;;2.92;;
11951;SDS011;6036;41.840;23.486;2022-10-16T01:35:00;6.53;;;2.90;;
11951;SDS011;6036;41.840;23.486;2022-10-16T01:40:45;4.28;;;2.80;;
11951;SDS011;6036;41.840;23.486;2022-10-16T01:43:15;5.07;;;3.03;;
11951;SDS011;6036;41.840;23.486;2022-10-16T01:45:45;5.25;;;3.30;;
11951;SDS011;6036;41.840;23.486;2022-10-16T01:48:12;5.32;;;3.38;;
11951;SDS011;6036;41.840;23.486;2022-10-16T01:50:41;6.13;;;3.08;;
11951;SDS011;6036;41.840;23.486;2022-10-16T01:53:13;4.78;;;2.83;;
11951;SDS011;6036;41.840;23.486;2022-10-16T01:55:42;3.65;;;2.50;;
11951;SDS011;6036;41.840;23.486;2022-10-16T01:58:11;4.78;;;2.65;;
11951;SDS011;6036;41.840;23.486;2022-10-16T02:00:38;4.10;;;3.20;;
11951;SDS011;6036;41.840;23.486;2022-10-16T02:03:07;4.50;;;1.90;;
11951;SDS011;6036;41.840;23.486;2022-10-16T02:05:41;3.30;;;2.38;;
11951;SDS011;6036;41.840;23.486;2022-10-16T02:08:11;3.67;;;3.03;;
11951;SDS011;6036;41.840;23.486;2022-10-16T02:10:37;5.40;;;3.47;;
11951;SDS011;6036;41.840;23.486;2022-10-16T02:13:05;3.90;;;2.95;;
11951;SDS011;6036;41.840;23.486;2022-10-16T02:15:34;6.07;;;3.47;;
11951;SDS011;6036;41.840;23.486;2022-10-16T02:17:59;6.28;;;3.45;;
11951;SDS011;6036;41.840;23.486;2022-10-16T02:20:27;4.13;;;2.80;;
11951;SDS011;6036;41.840;23.486;2022-10-16T02:22:57;3.95;;;2.63;;
11951;SDS011;6036;41.840;23.486;2022-10-16T02:25:30;4.22;;;2.95;;
11951;SDS011;6036;41.840;23.486;2022-10-16T02:28:03;5.38;;;3.15;;
11951;SDS011;6036;41.840;23.486;2022-10-16T02:30:35;4.65;;;2.90;;
11951;SDS011;6036;41.840;23.486;2022-10-16T02:33:07;3.90;;;2.47;;
11951;SDS011;6036;41.840;23.486;2022-10-16T02:35:35;4.13;;;2.73;;
11951;SDS011;6036;41.840;23.486;2022-10-16T02:38:03;7.90;;;2.90;;
11951;SDS011;6036;41.840;23.486;2022-10-16T02:40:29;4.25;;;2.90;;
11951;SDS011;6036;41.840;23.486;2022-10-16T02:42:55;15.02;;;7.20;;
11951;SDS011;6036;41.840;23.486;2022-10-16T02:45:22;13.25;;;7.68;;
11951;SDS011;6036;41.840;23.486;2022-10-16T02:47:47;13.95;;;7.80;;
11951;SDS011;6036;41.840;23.486;2022-10-16T02:50:13;12.43;;;6.88;;
11951;SDS011;6036;41.840;23.486;2022-10-16T02:52:39;11.13;;;6.53;;
11951;SDS011;6036;41.840;23.486;2022-10-16T02:55:05;11.98;;;6.53;;
11951;SDS011;6036;41.840;23.486;2022-10-16T02:57:30;16.80;;;6.75;;
11951;SDS011;6036;41.840;23.486;2022-10-16T02:59:56;10.43;;;6.28;;
11951;SDS011;6036;41.840;23.486;2022-10-16T03:02:22;11.75;;;6.80;;
11951;SDS011;6036;41.840;23.486;2022-10-16T03:04:47;9.02;;;5.65;;
11951;SDS011;6036;41.840;23.486;2022-10-16T03:07:13;9.38;;;5.93;;
11951;SDS011;6036;41.840;23.486;2022-10-16T03:09:38;13.85;;;6.03;;
11951;SDS011;6036;41.840;23.486;2022-10-16T03:12:04;10.80;;;5.63;;
11951;SDS011;6036;41.840;23.486;2022-10-16T03:14:29;12.48;;;5.85;;
11951;SDS011;6036;41.840;23.486;2022-10-16T03:16:55;8.90;;;5.55;;
11951;SDS011;6036;41.840;23.486;2022-10-16T03:19:20;10.70;;;5.25;;
11951;SDS011;6036;41.840;23.486;2022-10-16T03:21:45;6.65;;;4.20;;
11951;SDS011;6036;41.840;23.486;2022-10-16T03:24:11;9.05;;;3.65;;
11951;SDS011;6036;41.840;23.486;2022-10-16T03:26:36;6.57;;;4.30;;
11951;SDS011;6036;41.840;23.486;2022-10-16T03:29:02;6.07;;;3.20;;
11951;SDS011;6036;41.840;23.486;2022-10-16T03:31:28;3.55;;;2.75;;
11951;SDS011;6036;41.840;23.486;2022-10-16T03:33:54;5.13;;;2.83;;
11951;SDS011;6036;41.840;23.486;2022-10-16T03:36:19;6.30;;;3.25;;
11951;SDS011;6036;41.840;23.486;2022-10-16T03:38:44;4.13;;;3.58;;
11951;SDS011;6036;41.840;23.486;2022-10-16T03:41:10;5.47;;;3.47;;
11951;SDS011;6036;41.840;23.486;2022-10-16T03:43:35;5.72;;;3.50;;
11951;SDS011;6036;41.840;23.486;2022-10-16T03:46:01;9.23;;;5.20;;
11951;SDS011;6036;41.840;23.486;2022-10-16T03:48:26;6.32;;;4.55;;
11951;SDS011;6036;41.840;23.486;2022-10-16T03:50:51;8.27;;;5.60;;
11951;SDS011;6036;41.840;23.486;2022-10-16T03:53:17;9.43;;;5.75;;
11951;SDS011;6036;41.840;23.486;2022-10-16T03:55:43;14.55;;;7.50;;
11951;SDS011;6036;41.840;23.486;2022-10-16T03:58:10;14.15;;;8.02;;
11951;SDS011;6036;41.840;23.486;2022-10-16T04:00:39;11.32;;;6.72;;
11951;SDS011;6036;41.840;23.486;2022-10-16T04:03:08;9.98;;;6.63;;
11951;SDS011;6036;41.840;23.486;2022-10-16T04:05:34;7.07;;;4.32;;
11951;SDS011;6036;41.840;23.486;2022-10-16T04:07:59;5.88;;;3.90;;
11951;SDS011;6036;41.840;23.486;2022-10-16T04:10:25;7.38;;;3.92;;
11951;SDS011;6036;41.840;23.486;2022-10-16T04:12:50;5.55;;;4.30;;
11951;SDS011;6036;41.840;23.486;2022-10-16T04:15:15;10.10;;;4.00;;
11951;SDS011;6036;41.840;23.486;2022-10-16T04:17:41;7.55;;;3.78;;
11951;SDS011;6036;41.840;23.486;2022-10-16T04:20:07;4.82;;;3.72;;
11951;SDS011;6036;41.840;23.486;2022-10-16T04:22:33;6.03;;;4.13;;
11951;SDS011;6036;41.840;23.486;2022-10-16T04:24:58;5.25;;;4.10;;
11951;SDS011;6036;41.840;23.486;2022-10-16T04:27:23;8.90;;;6.00;;
11951;SDS011;6036;41.840;23.486;2022-10-16T04:29:49;8.80;;;6.85;;
11951;SDS011;6036;41.840;23.486;2022-10-16T04:32:14;8.65;;;6.45;;
11951;SDS011;6036;41.840;23.486;2022-10-16T04:34:39;9.15;;;5.90;;
11951;SDS011;6036;41.840;23.486;2022-10-16T04:37:05;11.90;;;5.72;;
11951;SDS011;6036;41.840;23.486;2022-10-16T04:39:30;8.63;;;5.15;;
11951;SDS011;6036;41.840;23.486;2022-10-16T04:41:56;11.63;;;5.85;;
11951;SDS011;6036;41.840;23.486;2022-10-16T04:44:22;13.30;;;5.53;;
11951;SDS011;6036;41.840;23.486;2022-10-16T04:46:47;7.32;;;4.10;;
11951;SDS011;6036;41.840;23.486;2022-10-16T04:49:14;7.43;;;4.05;;
11951;SDS011;6036;41.840;23.486;2022-10-16T04:51:40;6.80;;;5.00;;
11951;SDS011;6036;41.840;23.486;2022-10-16T04:54:05;5.47;;;3.97;;
11951;SDS011;6036;41.840;23.486;2022-10-16T04:56:31;8.98;;;4.18;;
11951;SDS011;6036;41.840;23.486;2022-10-16T04:58:56;5.18;;;3.03;;
11951;SDS011;6036;41.840;23.486;2022-10-16T05:01:21;6.78;;;3.33;;
11951;SDS011;6036;41.840;23.486;2022-10-16T05:03:47;5.30;;;4.05;;
11951;SDS011;6036;41.840;23.486;2022-10-16T05:06:12;14.23;;;4.70;;
11951;SDS011;6036;41.840;23.486;2022-10-16T05:08:38;7.60;;;4.28;;
11951;SDS011;6036;41.840;23.486;2022-10-16T05:11:03;8.10;;;3.65;;
11951;SDS011;6036;41.840;23.486;2022-10-16T05:13:28;4.15;;;3.15;;
11951;SDS011;6036;41.840;23.486;2022-10-16T05:15:54;7.68;;;3.85;;
11951;SDS011;6036;41.840;23.486;2022-10-16T05:18:19;4.68;;;3.35;;
11951;SDS011;6036;41.840;23.486;2022-10-16T05:20:45;7.20;;;3.00;;
11951;SDS011;6036;41.840;23.486;2022-10-16T05:23:10;4.07;;;3.17;;
11951;SDS011;6036;41.840;23.486;2022-10-16T05:25:36;4.45;;;2.90;;
11951;SDS011;6036;41.840;23.486;2022-10-16T05:28:02;3.42;;;2.88;;
11951;SDS011;6036;41.840;23.486;2022-10-16T05:30:28;4.25;;;2.58;;
11951;SDS011;6036;41.840;23.486;2022-10-16T05:32:53;3.58;;;2.47;;
11951;SDS011;6036;41.840;23.486;2022-10-16T05:35:19;4.78;;;2.80;;
11951;SDS011;6036;41.840;23.486;2022-10-16T05:37:45;6.88;;;3.17;;
11951;SDS011;6036;41.840;23.486;2022-10-16T05:40:11;5.47;;;3.28;;
11951;SDS011;6036;41.840;23.486;2022-10-16T05:42:38;10.13;;;3.22;;
11951;SDS011;6036;41.840;23.486;2022-10-16T05:45:04;7.13;;;4.85;;
11951;SDS011;6036;41.840;23.486;2022-10-16T05:47:31;45.67;;;25.02;;
11951;SDS011;6036;41.840;23.486;2022-10-16T05:49:56;84.28;;;43.55;;
11951;SDS011;6036;41.840;23.486;2022-10-16T05:52:21;80.03;;;41.65;;
11951;SDS011;6036;41.840;23.486;2022-10-16T05:54:47;75.57;;;40.80;;
11951;SDS011;6036;41.840;23.486;2022-10-16T05:57:12;60.78;;;34.55;;
11951;SDS011;6036;41.840;23.486;2022-10-16T05:59:38;53.40;;;32.67;;
11951;SDS011;6036;41.840;23.486;2022-10-16T06:02:03;40.80;;;24.65;;
11951;SDS011;6036;41.840;23.486;2022-10-16T06:04:28;23.60;;;14.43;;
11951;SDS011;6036;41.840;23.486;2022-10-16T06:06:54;17.08;;;11.00;;
11951;SDS011;6036;41.840;23.486;2022-10-16T06:09:25;13.93;;;8.25;;
11951;SDS011;6036;41.840;23.486;2022-10-16T06:11:50;8.20;;;5.80;;
11951;SDS011;6036;41.840;23.486;2022-10-16T06:14:16;10.43;;;5.88;;
11951;SDS011;6036;41.840;23.486;2022-10-16T06:16:41;10.05;;;6.05;;
11951;SDS011;6036;41.840;23.486;2022-10-16T06:19:07;9.90;;;4.82;;
11951;SDS011;6036;41.840;23.486;2022-10-16T06:21:33;6.65;;;5.22;;
11951;SDS011;6036;41.840;23.486;2022-10-16T06:23:58;5.95;;;4.85;;
11951;SDS011;6036;41.840;23.486;2022-10-16T06:26:28;8.75;;;5.53;;
11951;SDS011;6036;41.840;23.486;2022-10-16T06:28:55;12.95;;;6.45;;
11951;SDS011;6036;41.840;23.486;2022-10-16T06:31:22;15.18;;;11.32;;
11951;SDS011;6036;41.840;23.486;2022-10-16T06:33:52;17.77;;;12.23;;
11951;SDS011;6036;41.840;23.486;2022-10-16T09:26:01;4.00;;;3.00;;
11951;SDS011;6036;41.840;23.486;2022-10-16T09:28:28;5.15;;;2.35;;
11951;SDS011;6036;41.840;23.486;2022-10-16T09:30:54;2.65;;;2.15;;
11951;SDS011;6036;41.840;23.486;2022-10-16T09:33:21;4.90;;;3.67;;
11951;SDS011;6036;41.840;23.486;2022-10-16T09:35:50;4.10;;;2.92;;
11951;SDS011;6036;41.840;23.486;2022-10-16T09:38:24;4.50;;;2.95;;
11951;SDS011;6036;41.840;23.486;2022-10-16T09:41:00;4.00;;;3.08;;
11951;SDS011;6036;41.840;23.486;2022-10-16T09:49:03;2.45;;;2.03;;
11951;SDS011;6036;41.840;23.486;2022-10-16T09:51:31;3.17;;;2.13;;
11951;SDS011;6036;41.840;23.486;2022-10-16T09:54:17;3.15;;;2.30;;
11951;SDS011;6036;41.840;23.486;2022-10-16T09:56:44;4.07;;;2.38;;
11951;SDS011;6036;41.840;23.486;2022-10-16T09:59:19;3.17;;;1.95;;
11951;SDS011;6036;41.840;23.486;2022-10-16T10:01:49;2.60;;;2.25;;
11951;SDS011;6036;41.840;23.486;2022-10-16T10:04:17;2.63;;;2.10;;
11951;SDS011;6036;41.840;23.486;2022-10-16T10:06:47;4.28;;;2.20;;
11951;SDS011;6036;41.840;23.486;2022-10-16T10:16:45;2.85;;;2.17;;
11951;SDS011;6036;41.840;23.486;2022-10-16T10:19:14;3.13;;;2.55;;
11951;SDS011;6036;41.840;23.486;2022-10-16T10:21:44;4.28;;;2.30;;
11951;SDS011;6036;41.840;23.486;2022-10-16T10:24:14;4.88;;;2.50;;
11951;SDS011;6036;41.840;23.486;2022-10-16T10:26:55;3.70;;;2.08;;
11951;SDS011;6036;41.840;23.486;2022-10-16T10:32:17;5.50;;;1.70;;
11951;SDS011;6036;41.840;23.486;2022-10-16T10:35:24;2.67;;;1.75;;
11951;SDS011;6036;41.840;23.486;2022-10-16T10:37:51;2.97;;;1.80;;
11951;SDS011;6036;41.840;23.486;2022-10-16T10:57:30;1.90;;;1.70;;
11951;SDS011;6036;41.840;23.486;2022-10-16T11:08:04;2.30;;;1.48;;
11951;SDS011;6036;41.840;23.486;2022-10-16T11:10:42;2.28;;;1.58;;
11951;SDS011;6036;41.840;23.486;2022-10-16T11:15:40;3.53;;;2.10;;
11951;SDS011;6036;41.840;23.486;2022-10-16T11:20:57;2.33;;;1.60;;
11951;SDS011;6036;41.840;23.486;2022-10-16T11:23:31;2.35;;;1.63;;
11951;SDS011;6036;41.840;23.486;2022-10-16T11:26:04;2.25;;;1.48;;
11951;SDS011;6036;41.840;23.486;2022-10-16T11:28:42;2.20;;;1.40;;
11951;SDS011;6036;41.840;23.486;2022-10-16T11:31:28;3.65;;;1.75;;
11951;SDS011;6036;41.840;23.486;2022-10-16T11:33:59;2.95;;;1.48;;
11951;SDS011;6036;41.840;23.486;2022-10-16T11:36:42;2.33;;;1.70;;
11951;SDS011;6036;41.840;23.486;2022-10-16T11:41:50;2.55;;;1.92;;
11951;SDS011;6036;41.840;23.486;2022-10-16T11:44:41;1.60;;;1.33;;
11951;SDS011;6036;41.840;23.486;2022-10-16T11:49:47;1.58;;;1.05;;
11951;SDS011;6036;41.840;23.486;2022-10-16T11:55:15;1.77;;;0.98;;
11951;SDS011;6036;41.840;23.486;2022-10-16T11:57:54;1.77;;;1.17;;
11951;SDS011;6036;41.840;23.486;2022-10-16T12:01:02;2.17;;;1.40;;
11951;SDS011;6036;41.840;23.486;2022-10-16T12:08:49;1.85;;;1.55;;
11951;SDS011;6036;41.840;23.486;2022-10-16T12:16:50;1.63;;;1.25;;
11951;SDS011;6036;41.840;23.486;2022-10-16T12:19:19;1.77;;;1.33;;
11951;SDS011;6036;41.840;23.486;2022-10-16T12:21:46;1.40;;;1.30;;
11951;SDS011;6036;41.840;23.486;2022-10-16T12:27:04;1.85;;;1.33;;
11951;SDS011;6036;41.840;23.486;2022-10-16T12:29:36;2.03;;;1.48;;
11951;SDS011;6036;41.840;23.486;2022-10-16T12:32:03;6.13;;;1.52;;
11951;SDS011;6036;41.840;23.486;2022-10-16T12:34:41;4.43;;;1.60;;
11951;SDS011;6036;41.840;23.486;2022-10-16T12:37:13;2.25;;;1.73;;
11951;SDS011;6036;41.840;23.486;2022-10-16T12:39:44;3.28;;;1.33;;
11951;SDS011;6036;41.840;23.486;2022-10-16T12:47:50;2.95;;;1.45;;
11951;SDS011;6036;41.840;23.486;2022-10-16T12:50:23;1.98;;;1.77;;
11951;SDS011;6036;41.840;23.486;2022-10-16T12:52:51;2.15;;;1.42;;
11951;SDS011;6036;41.840;23.486;2022-10-16T12:55:17;4.07;;;1.48;;
11951;SDS011;6036;41.840;23.486;2022-10-16T13:06:14;1.88;;;1.58;;
11951;SDS011;6036;41.840;23.486;2022-10-16T13:17:13;1.25;;;1.13;;
11951;SDS011;6036;41.840;23.486;2022-10-16T13:23:15;1.77;;;1.33;;
11951;SDS011;6036;41.840;23.486;2022-10-16T13:28:34;1.90;;;1.27;;
11951;SDS011;6036;41.840;23.486;2022-10-16T13:31:02;1.75;;;1.50;;
11951;SDS011;6036;41.840;23.486;2022-10-16T13:33:33;2.88;;;1.73;;
11951;SDS011;6036;41.840;23.486;2022-10-16T13:36:05;2.97;;;1.77;;
11951;SDS011;6036;41.840;23.486;2022-10-16T13:38:34;1.92;;;1.42;;
11951;SDS011;6036;41.840;23.486;2022-10-16T13:41:02;2.25;;;1.60;;
11951;SDS011;6036;41.840;23.486;2022-10-16T13:43:45;2.92;;;1.75;;
11951;SDS011;6036;41.840;23.486;2022-10-16T13:46:15;2.10;;;1.33;;
11951;SDS011;6036;41.840;23.486;2022-10-16T13:48:41;3.00;;;1.67;;
11951;SDS011;6036;41.840;23.486;2022-10-16T13:51:17;2.03;;;1.80;;
11951;SDS011;6036;41.840;23.486;2022-10-16T13:53:43;3.13;;;2.20;;
11951;SDS011;6036;41.840;23.486;2022-10-16T13:56:16;2.55;;;1.80;;
11951;SDS011;6036;41.840;23.486;2022-10-16T13:58:44;2.15;;;1.90;;
11951;SDS011;6036;41.840;23.486;2022-10-16T14:01:26;4.97;;;2.35;;
11951;SDS011;6036;41.840;23.486;2022-10-16T14:03:59;3.03;;;1.95;;
11951;SDS011;6036;41.840;23.486;2022-10-16T14:06:36;3.55;;;2.17;;
11951;SDS011;6036;41.840;23.486;2022-10-16T14:11:56;3.20;;;1.95;;
11951;SDS011;6036;41.840;23.486;2022-10-16T14:14:26;7.88;;;1.83;;
11951;SDS011;6036;41.840;23.486;2022-10-16T14:16:57;2.03;;;1.75;;
11951;SDS011;6036;41.840;23.486;2022-10-16T14:19:23;2.42;;;1.70;;
11951;SDS011;6036;41.840;23.486;2022-10-16T14:21:54;3.15;;;1.60;;
11951;SDS011;6036;41.840;23.486;2022-10-16T14:26:55;2.03;;;1.60;;
11951;SDS011;6036;41.840;23.486;2022-10-16T14:29:21;1.80;;;1.67;;
11951;SDS011;6036;41.840;23.486;2022-10-16T14:31:58;1.77;;;1.58;;
11951;SDS011;6036;41.840;23.486;2022-10-16T14:34:29;1.60;;;1.50;;
11951;SDS011;6036;41.840;23.486;2022-10-16T14:36:56;1.90;;;1.73;;
11951;SDS011;6036;41.840;23.486;2022-10-16T14:39:32;2.53;;;1.50;;
11951;SDS011;6036;41.840;23.486;2022-10-16T14:41:58;2.47;;;1.75;;
11951;SDS011;6036;41.840;23.486;2022-10-16T14:44:42;4.53;;;1.88;;
11951;SDS011;6036;41.840;23.486;2022-10-16T14:47:09;1.70;;;1.48;;
11951;SDS011;6036;41.840;23.486;2022-10-16T14:49:41;1.92;;;1.58;;
11951;SDS011;6036;41.840;23.486;2022-10-16T14:52:11;2.22;;;1.45;;
11951;SDS011;6036;41.840;23.486;2022-10-16T14:54:37;2.42;;;1.50;;
11951;SDS011;6036;41.840;23.486;2022-10-16T14:57:02;3.05;;;1.73;;
11951;SDS011;6036;41.840;23.486;2022-10-16T15:05:13;2.92;;;1.90;;
11951;SDS011;6036;41.840;23.486;2022-10-16T15:07:39;2.63;;;1.63;;
11951;SDS011;6036;41.840;23.486;2022-10-16T15:10:05;2.03;;;1.48;;
11951;SDS011;6036;41.840;23.486;2022-10-16T15:12:30;3.35;;;1.90;;
11951;SDS011;6036;41.840;23.486;2022-10-16T15:14:56;3.65;;;2.20;;
11951;SDS011;6036;41.840;23.486;2022-10-16T15:17:21;3.90;;;2.13;;
11951;SDS011;6036;41.840;23.486;2022-10-16T15:19:46;3.45;;;1.92;;
11951;SDS011;6036;41.840;23.486;2022-10-16T15:22:12;3.72;;;2.22;;
11951;SDS011;6036;41.840;23.486;2022-10-16T15:24:37;4.00;;;2.78;;
11951;SDS011;6036;41.840;23.486;2022-10-16T15:27:03;3.83;;;2.83;;
11951;SDS011;6036;41.840;23.486;2022-10-16T15:29:28;4.28;;;2.60;;
11951;SDS011;6036;41.840;23.486;2022-10-16T15:31:53;3.65;;;2.67;;
11951;SDS011;6036;41.840;23.486;2022-10-16T15:34:19;2.15;;;1.50;;
11951;SDS011;6036;41.840;23.486;2022-10-16T15:36:44;3.33;;;1.40;;
11951;SDS011;6036;41.840;23.486;2022-10-16T15:39:12;1.75;;;1.58;;
11951;SDS011;6036;41.840;23.486;2022-10-16T15:41:39;1.33;;;1.13;;
11951;SDS011;6036;41.840;23.486;2022-10-16T15:44:04;3.13;;;1.85;;
11951;SDS011;6036;41.840;23.486;2022-10-16T15:46:30;2.72;;;1.80;;
11951;SDS011;6036;41.840;23.486;2022-10-16T15:48:56;3.67;;;2.03;;
11951;SDS011;6036;41.840;23.486;2022-10-16T15:51:23;3.42;;;2.45;;
11951;SDS011;6036;41.840;23.486;2022-10-16T15:53:49;2.72;;;1.65;;
11951;SDS011;6036;41.840;23.486;2022-10-16T15:56:16;3.53;;;1.63;;
11951;SDS011;6036;41.840;23.486;2022-10-16T15:58:42;2.00;;;1.55;;
11951;SDS011;6036;41.840;23.486;2022-10-16T16:01:08;2.70;;;1.58;;
11951;SDS011;6036;41.840;23.486;2022-10-16T16:03:35;2.38;;;1.95;;
11951;SDS011;6036;41.840;23.486;2022-10-16T16:06:03;2.72;;;2.15;;
11951;SDS011;6036;41.840;23.486;2022-10-16T16:08:30;3.97;;;2.05;;
11951;SDS011;6036;41.840;23.486;2022-10-16T16:10:59;3.03;;;2.30;;
11951;SDS011;6036;41.840;23.486;2022-10-16T16:13:24;4.45;;;2.10;;
11951;SDS011;6036;41.840;23.486;2022-10-16T16:15:50;3.85;;;2.40;;
11951;SDS011;6036;41.840;23.486;2022-10-16T16:18:15;3.85;;;2.33;;
11951;SDS011;6036;41.840;23.486;2022-10-16T16:20:40;5.68;;;2.55;;
11951;SDS011;6036;41.840;23.486;2022-10-16T16:23:06;4.40;;;3.00;;
11951;SDS011;6036;41.840;23.486;2022-10-16T16:25:31;2.83;;;1.95;;
11951;SDS011;6036;41.840;23.486;2022-10-16T16:27:57;4.50;;;2.53;;
11951;SDS011;6036;41.840;23.486;2022-10-16T16:30:22;4.88;;;2.30;;
11951;SDS011;6036;41.840;23.486;2022-10-16T16:32:48;3.28;;;1.98;;
11951;SDS011;6036;41.840;23.486;2022-10-16T16:35:13;5.28;;;2.00;;
11951;SDS011;6036;41.840;23.486;2022-10-16T16:37:39;2.85;;;1.95;;
11951;SDS011;6036;41.840;23.486;2022-10-16T16:40:04;2.47;;;1.85;;
11951;SDS011;6036;41.840;23.486;2022-10-16T16:42:30;2.50;;;1.98;;
11951;SDS011;6036;41.840;23.486;2022-10-16T16:44:55;4.38;;;1.98;;
11951;SDS011;6036;41.840;23.486;2022-10-16T16:47:21;4.75;;;2.08;;
11951;SDS011;6036;41.840;23.486;2022-10-16T16:49:46;3.53;;;2.08;;
11951;SDS011;6036;41.840;23.486;2022-10-16T16:52:12;2.53;;;2.10;;
11951;SDS011;6036;41.840;23.486;2022-10-16T16:54:38;3.08;;;2.03;;
11951;SDS011;6036;41.840;23.486;2022-10-16T16:57:04;2.40;;;2.10;;
11951;SDS011;6036;41.840;23.486;2022-10-16T16:59:29;3.83;;;2.20;;
11951;SDS011;6036;41.840;23.486;2022-10-16T17:01:57;3.40;;;2.70;;
11951;SDS011;6036;41.840;23.486;2022-10-16T17:04:26;3.28;;;1.98;;
11951;SDS011;6036;41.840;23.486;2022-10-16T17:06:54;2.97;;;2.45;;
11951;SDS011;6036;41.840;23.486;2022-10-16T17:09:20;3.30;;;2.08;;
11951;SDS011;6036;41.840;23.486;2022-10-16T17:11:46;3.03;;;1.77;;
11951;SDS011;6036;41.840;23.486;2022-10-16T17:14:13;3.80;;;2.20;;
11951;SDS011;6036;41.840;23.486;2022-10-16T17:16:39;2.47;;;2.17;;
11951;SDS011;6036;41.840;23.486;2022-10-16T17:19:10;3.50;;;2.00;;
11951;SDS011;6036;41.840;23.486;2022-10-16T17:21:39;3.83;;;2.17;;
11951;SDS011;6036;41.840;23.486;2022-10-16T17:24:05;2.22;;;2.00;;
11951;SDS011;6036;41.840;23.486;2022-10-16T17:26:32;3.58;;;1.50;;
11951;SDS011;6036;41.840;23.486;2022-10-16T17:29:02;2.00;;;1.27;;
11951;SDS011;6036;41.840;23.486;2022-10-16T17:31:32;2.50;;;1.73;;
11951;SDS011;6036;41.840;23.486;2022-10-16T17:33:59;2.67;;;1.90;;
11951;SDS011;6036;41.840;23.486;2022-10-16T17:36:26;1.98;;;1.80;;
11951;SDS011;6036;41.840;23.486;2022-10-16T17:38:56;1.80;;;1.58;;
11951;SDS011;6036;41.840;23.486;2022-10-16T17:41:24;1.95;;;1.30;;
11951;SDS011;6036;41.840;23.486;2022-10-16T17:43:50;2.65;;;1.45;;
11951;SDS011;6036;41.840;23.486;2022-10-16T17:46:17;2.72;;;1.92;;
11951;SDS011;6036;41.840;23.486;2022-10-16T17:48:44;2.70;;;1.70;;
11951;SDS011;6036;41.840;23.486;2022-10-16T17:51:13;1.95;;;1.73;;
11951;SDS011;6036;41.840;23.486;2022-10-16T17:53:40;2.53;;;1.95;;
11951;SDS011;6036;41.840;23.486;2022-10-16T17:56:10;4.30;;;1.85;;
11951;SDS011;6036;41.840;23.486;2022-10-16T17:58:37;2.95;;;1.90;;
11951;SDS011;6036;41.840;23.486;2022-10-16T18:01:14;4.38;;;1.83;;
11951;SDS011;6036;41.840;23.486;2022-10-16T18:03:41;3.90;;;2.03;;
11951;SDS011;6036;41.840;23.486;2022-10-16T18:06:07;2.13;;;1.75;;
11951;SDS011;6036;41.840;23.486;2022-10-16T18:08:33;5.50;;;2.25;;
11951;SDS011;6036;41.840;23.486;2022-10-16T18:11:01;4.65;;;2.17;;
11951;SDS011;6036;41.840;23.486;2022-10-16T18:13:27;3.75;;;2.38;;
11951;SDS011;6036;41.840;23.486;2022-10-16T18:16:03;2.00;;;1.80;;
11951;SDS011;6036;41.840;23.486;2022-10-16T18:18:31;3.40;;;1.95;;
11951;SDS011;6036;41.840;23.486;2022-10-16T18:20:57;1.98;;;1.70;;
11951;SDS011;6036;41.840;23.486;2022-10-16T18:23:23;3.75;;;2.35;;
11951;SDS011;6036;41.840;23.486;2022-10-16T18:25:49;2.53;;;1.80;;
11951;SDS011;6036;41.840;23.486;2022-10-16T18:28:15;2.17;;;1.63;;
11951;SDS011;6036;41.840;23.486;2022-10-16T18:30:40;3.42;;;1.60;;
11951;SDS011;6036;41.840;23.486;2022-10-16T18:33:05;3.13;;;2.17;;
11951;SDS011;6036;41.840;23.486;2022-10-16T18:35:33;3.38;;;1.70;;
11951;SDS011;6036;41.840;23.486;2022-10-16T18:38:00;5.50;;;2.10;;
11951;SDS011;6036;41.840;23.486;2022-10-16T18:40:25;5.25;;;2.00;;
11951;SDS011;6036;41.840;23.486;2022-10-16T18:42:51;1.90;;;1.77;;
11951;SDS011;6036;41.840;23.486;2022-10-16T18:45:17;3.83;;;2.22;;
11951;SDS011;6036;41.840;23.486;2022-10-16T18:47:43;3.72;;;1.85;;
11951;SDS011;6036;41.840;23.486;2022-10-16T18:50:08;3.42;;;1.98;;
11951;SDS011;6036;41.840;23.486;2022-10-16T18:52:34;1.98;;;1.77;;
11951;SDS011;6036;41.840;23.486;2022-10-16T18:54:59;2.75;;;1.85;;
11951;SDS011;6036;41.840;23.486;2022-10-16T18:57:26;3.10;;;2.00;;
11951;SDS011;6036;41.840;23.486;2022-10-16T18:59:53;3.58;;;2.53;;
11951;SDS011;6036;41.840;23.486;2022-10-16T19:02:19;5.57;;;1.98;;
11951;SDS011;6036;41.840;23.486;2022-10-16T19:04:44;3.83;;;2.30;;
11951;SDS011;6036;41.840;23.486;2022-10-16T19:07:10;3.15;;;1.75;;
11951;SDS011;6036;41.840;23.486;2022-10-16T19:09:36;4.10;;;2.35;;
11951;SDS011;6036;41.840;23.486;2022-10-16T19:12:02;4.25;;;1.60;;
11951;SDS011;6036;41.840;23.486;2022-10-16T19:14:27;2.95;;;1.98;;
11951;SDS011;6036;41.840;23.486;2022-10-16T19:16:54;2.00;;;1.80;;
11951;SDS011;6036;41.840;23.486;2022-10-16T19:19:19;3.63;;;2.28;;
11951;SDS011;6036;41.840;23.486;2022-10-16T19:21:46;3.00;;;2.00;;
11951;SDS011;6036;41.840;23.486;2022-10-16T19:24:15;1.98;;;1.70;;
11951;SDS011;6036;41.840;23.486;2022-10-16T19:26:41;3.95;;;2.13;;
11951;SDS011;6036;41.840;23.486;2022-10-16T19:29:07;1.95;;;1.65;;
11951;SDS011;6036;41.840;23.486;2022-10-16T19:31:33;3.42;;;1.90;;
11951;SDS011;6036;41.840;23.486;2022-10-16T19:34:00;3.20;;;1.75;;
11951;SDS011;6036;41.840;23.486;2022-10-16T19:36:28;3.25;;;1.48;;
11951;SDS011;6036;41.840;23.486;2022-10-16T19:38:56;2.85;;;1.65;;